createdAt,value
2019-03-13T00:00:20.413Z,973.66
2019-03-13T00:01:23.557Z,973.72
2019-03-13T00:02:20.298Z,973.65
2019-03-13T00:03:20.238Z,973.59
2019-03-13T00:04:20.178Z,973.68
2019-03-13T00:05:20.121Z,973.69
2019-03-13T00:06:20.061Z,973.82
2019-03-13T00:07:20.005Z,973.70
2019-03-13T00:08:19.943Z,973.87
2019-03-13T00:09:19.891Z,973.92
2019-03-13T00:10:19.826Z,973.96
2019-03-13T00:11:19.808Z,974.10
2019-03-13T00:12:19.736Z,973.94
2019-03-13T00:13:19.648Z,974.20
2019-03-13T00:14:19.589Z,974.19
2019-03-13T00:15:19.535Z,974.34
2019-03-13T00:16:19.474Z,974.44
2019-03-13T00:17:19.412Z,974.62
2019-03-13T00:18:19.355Z,974.74
2019-03-13T00:19:19.294Z,974.76
2019-03-13T00:20:19.235Z,974.65
2019-03-13T00:21:19.178Z,974.73
2019-03-13T00:22:19.119Z,974.83
2019-03-13T00:23:19.071Z,974.82
2019-03-13T00:24:19.001Z,974.84
2019-03-13T00:25:18.947Z,974.75
2019-03-13T00:26:18.888Z,974.85
2019-03-13T00:27:18.830Z,974.94
2019-03-13T00:28:18.767Z,974.90
2019-03-13T00:29:18.706Z,974.89
2019-03-13T00:30:18.651Z,975.01
2019-03-13T00:31:18.592Z,974.98
2019-03-13T00:32:18.529Z,975.15
2019-03-13T00:33:18.472Z,975.16
2019-03-13T00:34:18.411Z,975.26
2019-03-13T00:35:18.352Z,975.34
2019-03-13T00:36:18.373Z,975.25
2019-03-13T00:37:18.234Z,975.25
2019-03-13T00:38:18.176Z,975.27
2019-03-13T00:39:18.119Z,975.37
2019-03-13T00:40:18.063Z,975.38
2019-03-13T00:41:18.003Z,975.42
2019-03-13T00:42:17.942Z,975.48
2019-03-13T00:43:17.885Z,975.53
2019-03-13T00:44:17.822Z,975.57
2019-03-13T00:45:17.763Z,975.49
2019-03-13T00:46:17.706Z,975.31
2019-03-13T00:47:17.647Z,975.49
2019-03-13T00:48:17.588Z,975.62
2019-03-13T00:49:17.529Z,975.56
2019-03-13T00:50:17.470Z,975.60
2019-03-13T00:51:17.411Z,975.72
2019-03-13T00:52:17.358Z,975.81
2019-03-13T00:53:17.297Z,975.74
2019-03-13T00:54:17.235Z,975.78
2019-03-13T00:55:17.181Z,975.87
2019-03-13T00:56:17.118Z,975.96
2019-03-13T00:57:17.058Z,976.02
2019-03-13T00:58:17.000Z,976.10
2019-03-13T00:59:16.940Z,976.25
2019-03-13T01:00:16.964Z,976.31
2019-03-13T01:01:16.827Z,976.36
2019-03-13T01:02:16.790Z,976.45
2019-03-13T01:03:16.711Z,976.46
2019-03-13T01:04:16.645Z,976.57
2019-03-13T01:05:16.586Z,976.78
2019-03-13T01:06:16.529Z,976.81
2019-03-13T01:07:16.471Z,976.86
2019-03-13T01:08:16.411Z,976.71
2019-03-13T01:09:16.353Z,976.63
2019-03-13T01:10:16.297Z,976.72
2019-03-13T01:11:16.236Z,976.70
2019-03-13T01:12:16.175Z,976.73
2019-03-13T01:13:16.116Z,976.77
2019-03-13T01:14:16.057Z,976.85
2019-03-13T01:15:16.063Z,977.09
2019-03-13T01:16:15.940Z,977.05
2019-03-13T01:17:15.975Z,977.15
2019-03-13T01:18:15.822Z,977.32
2019-03-13T01:19:15.764Z,977.13
2019-03-13T01:20:15.704Z,977.17
2019-03-13T01:21:15.644Z,977.17
2019-03-13T01:22:15.591Z,977.12
2019-03-13T01:23:15.529Z,977.03
2019-03-13T01:24:15.468Z,977.07
2019-03-13T01:25:15.410Z,977.07
2019-03-13T01:26:15.353Z,977.03
2019-03-13T01:27:15.293Z,977.04
2019-03-13T01:28:15.233Z,977.06
2019-03-13T01:29:15.175Z,977.10
2019-03-13T01:30:15.115Z,977.21
2019-03-13T01:31:15.057Z,977.24
2019-03-13T01:32:14.998Z,977.34
2019-03-13T01:33:14.953Z,977.46
2019-03-13T01:34:14.881Z,977.61
2019-03-13T01:35:14.832Z,977.66
2019-03-13T01:36:14.764Z,977.52
2019-03-13T01:37:14.704Z,977.70
2019-03-13T01:38:14.645Z,977.65
2019-03-13T01:39:14.586Z,977.72
2019-03-13T01:40:14.526Z,977.83
2019-03-13T01:41:14.468Z,977.71
2019-03-13T01:42:14.410Z,977.70
2019-03-13T01:43:14.354Z,977.79
2019-03-13T01:44:14.290Z,977.83
2019-03-13T01:45:14.240Z,977.84
2019-03-13T01:46:14.177Z,977.84
2019-03-13T01:47:14.116Z,978.05
2019-03-13T01:48:14.056Z,978.10
2019-03-13T01:49:13.996Z,978.11
2019-03-13T01:50:13.940Z,978.14
2019-03-13T01:51:13.879Z,978.11
2019-03-13T01:52:13.819Z,978.11
2019-03-13T01:53:13.762Z,978.19
2019-03-13T01:54:13.704Z,978.19
2019-03-13T01:55:13.645Z,978.05
2019-03-13T01:56:13.588Z,978.07
2019-03-13T01:57:13.526Z,978.08
2019-03-13T01:58:13.469Z,978.12
2019-03-13T01:59:13.407Z,978.22
2019-03-13T02:00:13.354Z,978.14
2019-03-13T02:01:13.290Z,978.04
2019-03-13T02:02:13.232Z,978.19
2019-03-13T02:03:13.172Z,978.14
2019-03-13T02:04:13.112Z,978.04
2019-03-13T02:05:13.053Z,978.05
2019-03-13T02:06:12.994Z,978.16
2019-03-13T02:07:12.940Z,978.17
2019-03-13T02:08:12.882Z,978.30
2019-03-13T02:09:12.817Z,978.24
2019-03-13T02:10:12.765Z,978.28
2019-03-13T02:11:12.716Z,978.29
2019-03-13T02:12:12.642Z,978.20
2019-03-13T02:13:12.584Z,978.23
2019-03-13T02:14:12.524Z,978.26
2019-03-13T02:15:12.464Z,978.21
2019-03-13T02:16:12.405Z,978.27
2019-03-13T02:17:12.347Z,978.15
2019-03-13T02:18:12.295Z,978.29
2019-03-13T02:19:12.229Z,978.17
2019-03-13T02:20:12.180Z,978.08
2019-03-13T02:21:12.143Z,978.20
2019-03-13T02:22:12.051Z,978.25
2019-03-13T02:23:12.042Z,978.23
2019-03-13T02:24:11.934Z,978.34
2019-03-13T02:25:11.894Z,978.40
2019-03-13T02:26:11.817Z,978.50
2019-03-13T02:27:11.758Z,978.46
2019-03-13T02:28:11.698Z,978.38
2019-03-13T02:29:11.639Z,978.46
2019-03-13T02:30:11.583Z,978.47
2019-03-13T02:31:11.523Z,978.42
2019-03-13T02:32:11.462Z,978.45
2019-03-13T02:33:11.423Z,978.47
2019-03-13T02:34:11.345Z,978.48
2019-03-13T02:35:11.287Z,978.42
2019-03-13T02:36:11.227Z,978.43
2019-03-13T02:37:11.171Z,978.50
2019-03-13T02:38:11.115Z,978.48
2019-03-13T02:39:11.052Z,978.44
2019-03-13T02:40:11.045Z,978.53
2019-03-13T02:41:10.934Z,978.48
2019-03-13T02:42:10.878Z,978.49
2019-03-13T02:43:10.814Z,978.52
2019-03-13T02:44:10.756Z,978.49
2019-03-13T02:45:10.710Z,978.54
2019-03-13T02:46:10.638Z,978.54
2019-03-13T02:47:10.582Z,978.58
2019-03-13T02:48:10.518Z,978.59
2019-03-13T02:49:10.466Z,978.58
2019-03-13T02:50:10.436Z,978.64
2019-03-13T02:51:10.346Z,978.62
2019-03-13T02:52:10.293Z,978.69
2019-03-13T02:53:10.226Z,978.67
2019-03-13T02:54:10.166Z,978.70
2019-03-13T02:55:10.107Z,978.73
2019-03-13T02:56:10.047Z,978.73
2019-03-13T02:57:09.991Z,978.79
2019-03-13T02:58:10.045Z,978.81
2019-03-13T02:59:09.874Z,978.84
2019-03-13T03:00:09.819Z,978.82
2019-03-13T03:01:09.753Z,978.89
2019-03-13T03:02:09.704Z,978.94
2019-03-13T03:03:09.638Z,978.95
2019-03-13T03:04:09.578Z,978.96
2019-03-13T03:05:09.522Z,978.90
2019-03-13T03:06:09.459Z,978.93
2019-03-13T03:07:12.702Z,978.89
2019-03-13T03:08:09.340Z,978.84
2019-03-13T03:09:09.284Z,978.86
2019-03-13T03:10:09.223Z,978.91
2019-03-13T03:11:09.163Z,978.92
2019-03-13T03:12:09.155Z,978.94
2019-03-13T03:13:09.048Z,979.00
2019-03-13T03:14:08.988Z,978.98
2019-03-13T03:15:09.036Z,979.01
2019-03-13T03:16:08.873Z,979.01
2019-03-13T03:17:08.953Z,979.04
2019-03-13T03:18:08.754Z,979.06
2019-03-13T03:19:08.693Z,979.03
2019-03-13T03:20:08.640Z,979.11
2019-03-13T03:21:08.585Z,979.16
2019-03-13T03:22:08.515Z,979.08
2019-03-13T03:23:08.559Z,979.11
2019-03-13T03:24:08.396Z,979.13
2019-03-13T03:25:08.335Z,979.19
2019-03-13T03:26:08.277Z,979.12
2019-03-13T03:27:08.221Z,979.27
2019-03-13T03:28:08.160Z,979.19
2019-03-13T03:29:08.101Z,979.20
2019-03-13T03:30:08.043Z,979.24
2019-03-13T03:31:07.984Z,979.22
2019-03-13T03:32:07.923Z,979.27
2019-03-13T03:33:07.880Z,979.22
2019-03-13T03:34:07.816Z,979.31
2019-03-13T03:35:07.747Z,979.33
2019-03-13T03:36:07.689Z,979.31
2019-03-13T03:37:07.628Z,979.30
2019-03-13T03:38:07.569Z,979.30
2019-03-13T03:39:07.512Z,979.32
2019-03-13T03:40:07.451Z,979.36
2019-03-13T03:41:07.397Z,979.36
2019-03-13T03:42:07.354Z,979.32
2019-03-13T03:43:07.275Z,979.31
2019-03-13T03:44:07.219Z,979.38
2019-03-13T03:45:07.159Z,979.35
2019-03-13T03:46:07.101Z,979.46
2019-03-13T03:47:07.038Z,979.48
2019-03-13T03:48:06.979Z,979.47
2019-03-13T03:49:06.920Z,979.53
2019-03-13T03:50:06.862Z,979.46
2019-03-13T03:51:06.802Z,979.55
2019-03-13T03:52:06.742Z,979.52
2019-03-13T03:53:06.686Z,979.59
2019-03-13T03:54:06.626Z,979.57
2019-03-13T03:55:06.570Z,979.59
2019-03-13T03:56:06.506Z,979.62
2019-03-13T03:57:06.447Z,979.59
2019-03-13T03:58:06.390Z,979.55
2019-03-13T03:59:06.333Z,979.59
2019-03-13T04:00:06.270Z,979.59
2019-03-13T04:01:06.211Z,979.58
2019-03-13T04:02:06.194Z,979.57
2019-03-13T04:03:06.099Z,979.60
2019-03-13T04:04:06.033Z,979.60
2019-03-13T04:05:05.974Z,979.65
2019-03-13T04:06:05.921Z,979.64
2019-03-13T04:07:05.864Z,979.63
2019-03-13T04:08:05.797Z,979.61
2019-03-13T04:09:05.739Z,979.59
2019-03-13T04:10:05.679Z,979.58
2019-03-13T04:11:05.622Z,979.62
2019-03-13T04:12:05.563Z,979.59
2019-03-13T04:13:05.506Z,979.61
2019-03-13T04:14:05.445Z,979.59
2019-03-13T04:15:05.389Z,979.59
2019-03-13T04:16:05.364Z,979.60
2019-03-13T04:17:05.267Z,979.55
2019-03-13T04:18:05.207Z,979.52
2019-03-13T04:19:05.150Z,979.53
2019-03-13T04:20:05.088Z,979.58
2019-03-13T04:21:05.101Z,979.60
2019-03-13T04:22:05.006Z,979.59
2019-03-13T04:23:04.913Z,979.61
2019-03-13T04:24:04.852Z,979.63
2019-03-13T04:25:04.794Z,979.64
2019-03-13T04:26:04.735Z,979.61
2019-03-13T04:27:04.677Z,979.64
2019-03-13T04:28:04.615Z,979.69
2019-03-13T04:29:04.558Z,979.65
2019-03-13T04:30:04.498Z,979.64
2019-03-13T04:31:04.440Z,979.63
2019-03-13T04:32:04.383Z,979.68
2019-03-13T04:33:04.323Z,979.65
2019-03-13T04:34:04.262Z,979.63
2019-03-13T04:35:04.204Z,979.59
2019-03-13T04:36:04.155Z,979.50
2019-03-13T04:37:04.087Z,979.52
2019-03-13T04:38:04.109Z,979.48
2019-03-13T04:39:03.968Z,979.53
2019-03-13T04:40:03.908Z,979.53
2019-03-13T04:41:03.849Z,979.54
2019-03-13T04:42:03.788Z,979.53
2019-03-13T04:43:03.732Z,979.53
2019-03-13T04:44:03.674Z,979.53
2019-03-13T04:45:03.613Z,979.56
2019-03-13T04:46:03.621Z,979.56
2019-03-13T04:47:03.494Z,979.59
2019-03-13T04:48:03.435Z,979.61
2019-03-13T04:49:03.376Z,979.57
2019-03-13T04:50:03.317Z,979.65
2019-03-13T04:51:03.262Z,979.59
2019-03-13T04:52:03.199Z,979.63
2019-03-13T04:53:03.143Z,979.56
2019-03-13T04:54:03.080Z,979.61
2019-03-13T04:55:03.029Z,979.65
2019-03-13T04:56:02.965Z,979.63
2019-03-13T04:57:02.903Z,979.65
2019-03-13T04:58:02.846Z,979.70
2019-03-13T04:59:02.785Z,979.77
2019-03-13T05:00:02.729Z,979.59
2019-03-13T05:01:02.666Z,979.74
2019-03-13T05:02:02.608Z,979.76
2019-03-13T05:03:02.549Z,979.68
2019-03-13T05:04:02.495Z,979.76
2019-03-13T05:05:02.433Z,979.75
2019-03-13T05:06:02.373Z,979.75
2019-03-13T05:07:02.312Z,979.73
2019-03-13T05:08:02.254Z,979.72
2019-03-13T05:09:02.194Z,979.75
2019-03-13T05:10:02.134Z,979.71
2019-03-13T05:11:02.077Z,979.66
2019-03-13T05:12:02.016Z,979.74
2019-03-13T05:13:02.060Z,979.67
2019-03-13T05:14:01.898Z,979.67
2019-03-13T05:15:01.842Z,979.67
2019-03-13T05:16:01.780Z,979.71
2019-03-13T05:17:01.727Z,979.76
2019-03-13T05:18:01.662Z,979.76
2019-03-13T05:19:01.603Z,979.75
2019-03-13T05:20:01.545Z,979.74
2019-03-13T05:21:01.488Z,979.66
2019-03-13T05:22:01.428Z,979.70
2019-03-13T05:23:01.371Z,979.66
2019-03-13T05:24:01.308Z,979.65
2019-03-13T05:25:01.256Z,979.74
2019-03-13T05:26:01.189Z,979.72
2019-03-13T05:27:01.131Z,979.71
2019-03-13T05:28:01.073Z,979.68
2019-03-13T05:29:01.012Z,979.69
2019-03-13T05:30:00.961Z,979.68
2019-03-13T05:31:00.903Z,979.68
2019-03-13T05:32:00.844Z,979.62
2019-03-13T05:33:00.779Z,979.65
2019-03-13T05:34:00.718Z,979.60
2019-03-13T05:35:00.659Z,979.64
2019-03-13T05:36:00.611Z,979.64
2019-03-13T05:37:00.547Z,979.65
2019-03-13T05:38:00.489Z,979.60
2019-03-13T05:39:00.429Z,979.57
2019-03-13T05:40:00.509Z,979.57
2019-03-13T05:41:00.306Z,979.57
2019-03-13T05:42:00.247Z,979.60
2019-03-13T05:43:00.187Z,979.58
2019-03-13T05:44:00.128Z,979.49
2019-03-13T05:45:00.066Z,979.61
2019-03-13T05:46:00.007Z,979.54
2019-03-13T05:46:59.951Z,979.56
2019-03-13T05:47:59.890Z,979.54
2019-03-13T05:48:59.830Z,979.62
2019-03-13T05:49:59.769Z,979.61
2019-03-13T05:50:59.711Z,979.65
2019-03-13T05:51:59.652Z,979.60
2019-03-13T05:52:59.594Z,979.62
2019-03-13T05:53:59.539Z,979.63
2019-03-13T05:54:59.477Z,979.66
2019-03-13T05:55:59.414Z,979.68
2019-03-13T05:56:59.359Z,979.65
2019-03-13T05:57:59.311Z,979.60
2019-03-13T05:58:59.239Z,979.55
2019-03-13T06:01:30.743Z,979.59
2019-03-13T06:02:30.646Z,979.65
2019-03-13T06:04:23.458Z,979.65
2019-03-13T06:05:23.358Z,979.69
2019-03-13T06:07:16.144Z,979.59
2019-03-13T06:08:18.577Z,979.65
2019-03-13T06:10:08.897Z,979.70
2019-03-13T06:11:08.798Z,979.67
2019-03-13T06:13:01.584Z,979.79
2019-03-13T06:14:01.518Z,979.76
2019-03-13T06:15:54.332Z,979.81
2019-03-13T06:16:54.235Z,979.79
2019-03-13T06:18:47.051Z,979.83
2019-03-13T06:19:46.958Z,979.85
2019-03-13T06:21:39.738Z,979.92
2019-03-13T06:22:39.675Z,979.96
2019-03-13T06:24:32.497Z,980.02
2019-03-13T06:25:32.400Z,980.09
2019-03-13T06:27:25.183Z,980.09
2019-03-13T06:28:25.154Z,980.06
2019-03-13T06:30:17.937Z,980.11
2019-03-13T06:31:17.831Z,980.09
2019-03-13T06:33:10.620Z,980.14
2019-03-13T06:34:11.682Z,980.11
2019-03-13T06:36:03.387Z,980.05
2019-03-13T06:37:03.274Z,980.09
2019-03-13T06:38:56.054Z,980.10
2019-03-13T06:39:55.994Z,980.05
2019-03-13T06:41:48.810Z,980.07
2019-03-13T06:42:48.711Z,980.08
2019-03-13T06:44:41.530Z,980.11
2019-03-13T06:45:41.434Z,980.15
2019-03-13T06:47:34.223Z,980.13
2019-03-13T06:48:34.159Z,980.14
2019-03-13T06:50:26.988Z,980.10
2019-03-13T06:51:26.878Z,980.07
2019-03-13T06:53:19.694Z,980.00
2019-03-13T06:54:19.597Z,979.99
2019-03-13T06:56:12.414Z,980.01
2019-03-13T06:57:12.316Z,980.03
2019-03-13T06:59:05.099Z,979.96
2019-03-13T07:00:05.109Z,980.00
2019-03-13T07:01:57.947Z,979.95
2019-03-13T07:02:57.751Z,979.92
2019-03-13T07:04:50.574Z,979.93
2019-03-13T07:05:50.472Z,979.99
2019-03-13T07:07:43.255Z,979.98
2019-03-13T07:08:43.191Z,979.92
2019-03-13T07:10:36.014Z,979.94
2019-03-13T07:11:35.911Z,979.96
2019-03-13T07:13:28.733Z,979.95
2019-03-13T07:14:28.638Z,979.92
2019-03-13T07:16:21.450Z,979.88
2019-03-13T07:17:21.355Z,979.85
2019-03-13T07:19:14.137Z,979.91
2019-03-13T07:20:14.071Z,979.87
2019-03-13T07:22:06.897Z,979.74
2019-03-13T07:23:06.787Z,979.74
2019-03-13T07:24:59.677Z,979.69
2019-03-13T07:25:59.505Z,979.71
2019-03-13T07:27:52.290Z,979.56
2019-03-13T07:28:52.602Z,979.56
2019-03-13T07:30:45.038Z,979.63
2019-03-13T07:31:44.941Z,979.58
2019-03-13T07:33:37.757Z,979.62
2019-03-13T07:34:37.660Z,979.66
2019-03-13T07:36:30.443Z,979.54
2019-03-13T07:37:30.389Z,979.59
2019-03-13T07:39:23.211Z,979.57
2019-03-13T07:40:23.097Z,979.56
2019-03-13T07:42:15.882Z,979.60
2019-03-13T07:43:15.819Z,979.45
2019-03-13T07:45:08.636Z,979.50
2019-03-13T07:46:08.541Z,979.50
2019-03-13T07:48:01.322Z,979.62
2019-03-13T07:49:01.262Z,979.52
2019-03-13T07:50:54.069Z,979.51
2019-03-13T07:51:53.973Z,979.48
2019-03-13T07:53:46.793Z,979.48
2019-03-13T07:54:46.697Z,979.53
2019-03-13T07:56:39.519Z,979.51
2019-03-13T07:57:39.415Z,979.48
2019-03-13T07:59:32.793Z,979.57
2019-03-13T08:00:32.534Z,979.47
2019-03-13T08:02:25.153Z,979.56
2019-03-13T08:03:25.054Z,979.49
2019-03-13T08:05:17.839Z,979.56
2019-03-13T08:06:17.776Z,979.51
2019-03-13T08:08:10.591Z,979.66
2019-03-13T08:09:10.493Z,979.55
2019-03-13T08:11:03.329Z,979.61
2019-03-13T08:12:03.213Z,979.52
2019-03-13T08:13:55.993Z,979.48
2019-03-13T08:14:55.928Z,979.55
2019-03-13T08:16:48.762Z,979.64
2019-03-13T08:17:48.647Z,979.57
2019-03-13T08:19:41.431Z,979.70
2019-03-13T08:20:41.364Z,979.69
2019-03-13T08:22:34.184Z,979.70
2019-03-13T08:23:34.084Z,979.71
2019-03-13T08:25:26.876Z,979.71
2019-03-13T08:26:26.808Z,979.63
2019-03-13T08:28:19.629Z,979.71
2019-03-13T08:29:19.529Z,979.76
2019-03-13T08:31:12.345Z,979.52
2019-03-13T08:32:12.248Z,979.72
2019-03-13T08:34:05.064Z,979.65
2019-03-13T08:35:04.968Z,979.70
2019-03-13T08:36:58.349Z,979.63
2019-03-13T08:37:58.081Z,979.76
2019-03-13T08:39:50.705Z,979.70
2019-03-13T08:40:50.658Z,979.72
2019-03-13T08:42:43.387Z,979.72
2019-03-13T08:43:43.323Z,979.57
2019-03-13T08:45:36.730Z,979.59
2019-03-13T08:46:36.433Z,979.59
2019-03-13T08:48:29.023Z,979.75
2019-03-13T08:49:28.964Z,979.41
2019-03-13T08:51:21.776Z,979.66
2019-03-13T08:52:21.681Z,979.61
2019-03-13T08:54:14.523Z,979.30
2019-03-13T08:55:14.399Z,979.53
2019-03-13T08:57:07.224Z,979.50
2019-03-13T08:58:07.120Z,979.55
2019-03-13T08:59:59.906Z,979.54
2019-03-13T09:00:59.841Z,979.67
2019-03-13T09:02:52.658Z,979.51
2019-03-13T09:03:52.559Z,979.54
2019-03-13T09:05:45.344Z,979.54
2019-03-13T09:06:45.276Z,979.63
2019-03-13T09:08:38.094Z,979.62
2019-03-13T09:09:37.996Z,979.52
2019-03-13T09:11:30.819Z,979.59
2019-03-13T09:12:30.719Z,979.64
2019-03-13T09:14:23.534Z,979.55
2019-03-13T09:15:23.436Z,979.56
2019-03-13T09:17:16.254Z,979.49
2019-03-13T09:18:16.153Z,979.49
2019-03-13T09:20:08.968Z,979.52
2019-03-13T09:21:08.873Z,979.59
2019-03-13T09:23:01.691Z,979.54
2019-03-13T09:24:01.588Z,979.29
2019-03-13T09:25:54.379Z,979.30
2019-03-13T09:26:54.309Z,979.32
2019-03-13T09:28:47.138Z,979.43
2019-03-13T09:29:47.032Z,979.34
2019-03-13T09:31:40.435Z,979.17
2019-03-13T09:32:39.937Z,979.18
2019-03-13T09:34:32.721Z,979.16
2019-03-13T09:35:32.658Z,979.17
2019-03-13T09:37:25.466Z,979.29
2019-03-13T09:38:25.377Z,979.24
2019-03-13T09:40:18.162Z,979.25
2019-03-13T09:41:18.095Z,979.14
2019-03-13T09:43:10.915Z,979.24
2019-03-13T09:44:10.818Z,979.25
2019-03-13T09:46:03.602Z,979.21
2019-03-13T09:47:03.534Z,979.41
2019-03-13T09:48:56.941Z,979.27
2019-03-13T09:49:56.645Z,979.21
2019-03-13T09:51:49.228Z,979.08
2019-03-13T09:52:49.166Z,979.17
2019-03-13T09:54:41.981Z,979.16
2019-03-13T09:55:41.887Z,979.24
2019-03-13T09:57:34.704Z,979.23
2019-03-13T09:58:34.604Z,979.16
2019-03-13T10:00:27.418Z,979.08
2019-03-13T10:01:27.317Z,979.17
2019-03-13T10:03:20.101Z,979.22
2019-03-13T10:04:20.038Z,979.15
2019-03-13T10:06:12.898Z,979.31
2019-03-13T10:07:12.756Z,979.22
2019-03-13T10:09:05.537Z,979.26
2019-03-13T10:10:05.474Z,979.22
2019-03-13T10:11:58.293Z,979.18
2019-03-13T10:12:58.195Z,979.18
2019-03-13T10:14:50.978Z,979.23
2019-03-13T10:15:50.914Z,979.20
2019-03-13T10:17:43.729Z,979.18
2019-03-13T10:18:43.631Z,979.12
2019-03-13T10:20:36.460Z,979.19
2019-03-13T10:21:36.355Z,979.16
2019-03-13T10:23:29.135Z,979.16
2019-03-13T10:24:29.070Z,979.21
2019-03-13T10:26:21.879Z,979.20
2019-03-13T10:27:21.791Z,979.18
2019-03-13T10:29:14.600Z,979.12
2019-03-13T10:30:14.511Z,979.09
2019-03-13T10:32:07.297Z,979.07
2019-03-13T10:33:07.232Z,978.96
2019-03-13T10:35:00.054Z,978.85
2019-03-13T10:35:59.948Z,978.84
2019-03-13T10:37:52.739Z,978.99
2019-03-13T10:38:52.674Z,978.95
2019-03-13T10:40:45.493Z,978.89
2019-03-13T10:41:45.393Z,979.01
2019-03-13T10:43:38.801Z,978.90
2019-03-13T10:44:38.304Z,978.93
2019-03-13T10:46:31.087Z,978.93
2019-03-13T10:47:31.022Z,978.94
2019-03-13T10:49:23.840Z,978.92
2019-03-13T10:50:23.743Z,978.96
2019-03-13T10:52:16.530Z,978.97
2019-03-13T10:53:16.462Z,978.97
2019-03-13T10:55:09.280Z,978.91
2019-03-13T10:56:09.183Z,978.95
2019-03-13T10:58:01.966Z,979.00
2019-03-13T10:59:01.898Z,978.93
2019-03-13T11:00:54.719Z,978.84
2019-03-13T11:01:54.619Z,978.91
2019-03-13T11:03:47.401Z,978.92
2019-03-13T11:04:47.336Z,978.83
2019-03-13T11:06:40.153Z,978.88
2019-03-13T11:07:40.054Z,978.89
2019-03-13T11:09:32.871Z,978.88
2019-03-13T11:10:32.778Z,978.97
2019-03-13T11:12:25.588Z,978.82
2019-03-13T11:13:25.491Z,978.82
2019-03-13T11:15:18.297Z,978.81
2019-03-13T11:16:18.213Z,978.87
2019-03-13T11:18:11.027Z,978.78
2019-03-13T11:19:10.930Z,978.80
2019-03-13T11:21:03.745Z,978.82
2019-03-13T11:22:03.647Z,978.85
2019-03-13T11:23:56.435Z,978.79
2019-03-13T11:24:56.369Z,978.74
2019-03-13T11:26:49.177Z,978.77
2019-03-13T11:27:49.100Z,978.80
2019-03-13T11:29:41.908Z,978.85
2019-03-13T11:30:41.808Z,978.78
2019-03-13T11:32:34.646Z,978.82
2019-03-13T11:33:34.531Z,978.87
2019-03-13T11:35:27.313Z,978.86
2019-03-13T11:36:27.253Z,978.88
2019-03-13T11:38:20.075Z,978.85
2019-03-13T11:39:19.970Z,978.85
2019-03-13T11:41:12.755Z,978.81
2019-03-13T11:42:12.727Z,978.87
2019-03-13T11:44:05.511Z,978.92
2019-03-13T11:45:05.405Z,978.90
2019-03-13T11:46:58.193Z,978.89
2019-03-13T11:47:58.125Z,978.81
2019-03-13T11:49:50.940Z,978.89
2019-03-13T11:50:50.844Z,978.78
2019-03-13T11:52:43.626Z,978.86
2019-03-13T11:53:43.563Z,978.85
2019-03-13T11:55:36.387Z,978.88
2019-03-13T11:56:36.281Z,978.80
2019-03-13T11:58:29.063Z,978.81
2019-03-13T11:59:29.001Z,978.81
2019-03-13T12:01:21.827Z,978.71
2019-03-13T12:02:21.726Z,978.67
2019-03-13T12:04:14.542Z,978.62
2019-03-13T12:05:14.442Z,978.68
2019-03-13T12:07:07.230Z,978.57
2019-03-13T12:08:07.164Z,978.63
2019-03-13T12:09:59.979Z,978.55
2019-03-13T12:10:59.881Z,978.47
2019-03-13T12:12:52.701Z,978.51
2019-03-13T12:13:52.605Z,978.52
2019-03-13T12:15:45.387Z,978.52
2019-03-13T12:16:45.323Z,978.48
2019-03-13T12:18:38.133Z,978.42
2019-03-13T12:19:38.077Z,978.37
2019-03-13T12:21:30.826Z,978.33
2019-03-13T12:22:30.760Z,978.32
2019-03-13T12:24:23.578Z,978.39
2019-03-13T12:25:23.479Z,978.36
2019-03-13T12:27:16.369Z,978.32
2019-03-13T12:28:16.304Z,978.36
2019-03-13T12:30:09.127Z,978.37
2019-03-13T12:31:09.023Z,978.41
2019-03-13T12:33:01.840Z,978.30
2019-03-13T12:34:01.739Z,978.35
2019-03-13T12:35:55.114Z,978.36
2019-03-13T12:36:54.457Z,978.39
2019-03-13T12:38:47.242Z,978.35
2019-03-13T12:39:47.177Z,978.32
2019-03-13T12:41:39.992Z,978.73
2019-03-13T12:42:39.895Z,978.42
2019-03-13T12:44:32.715Z,978.66
2019-03-13T12:45:33.269Z,978.66
2019-03-13T12:47:25.431Z,978.42
2019-03-13T12:48:25.333Z,978.37
2019-03-13T12:50:18.114Z,978.26
2019-03-13T12:51:18.051Z,978.16
2019-03-13T12:53:10.869Z,978.02
2019-03-13T12:54:10.770Z,978.00
2019-03-13T12:56:03.582Z,978.05
2019-03-13T12:57:03.503Z,978.11
2019-03-13T12:58:56.309Z,978.09
2019-03-13T12:59:56.219Z,978.02
2019-03-13T13:01:49.032Z,977.98
2019-03-13T13:02:48.934Z,978.08
2019-03-13T13:04:41.734Z,978.00
2019-03-13T13:05:41.658Z,977.97
2019-03-13T13:07:34.471Z,978.01
2019-03-13T13:08:34.374Z,977.97
2019-03-13T13:10:27.156Z,977.96
2019-03-13T13:11:27.097Z,978.01
2019-03-13T13:13:20.402Z,977.93
2019-03-13T13:14:20.307Z,977.92
2019-03-13T13:15:20.247Z,977.92
2019-03-13T13:16:20.188Z,977.99
2019-03-13T13:17:20.128Z,977.94
2019-03-13T13:18:20.069Z,977.88
2019-03-13T13:19:20.010Z,977.84
2019-03-13T13:20:19.957Z,977.94
2019-03-13T13:21:19.896Z,978.11
2019-03-13T13:22:19.885Z,977.94
2019-03-13T13:23:19.783Z,977.89
2019-03-13T13:24:19.717Z,977.84
2019-03-13T13:25:19.736Z,977.85
2019-03-13T13:26:19.602Z,977.84
2019-03-13T13:27:19.540Z,977.87
2019-03-13T13:28:19.480Z,977.90
2019-03-13T13:29:19.421Z,977.88
2019-03-13T13:30:19.364Z,977.87
2019-03-13T13:31:19.310Z,977.87
2019-03-13T13:32:19.244Z,977.85
2019-03-13T13:33:19.199Z,977.88
2019-03-13T13:34:19.137Z,977.84
2019-03-13T13:35:19.066Z,977.92
2019-03-13T13:36:19.009Z,977.89
2019-03-13T13:37:18.951Z,977.74
2019-03-13T13:38:18.892Z,977.88
2019-03-13T13:39:18.832Z,977.86
2019-03-13T13:40:18.772Z,977.90
2019-03-13T13:41:18.713Z,977.87
2019-03-13T13:42:18.654Z,977.85
2019-03-13T13:43:18.597Z,977.85
2019-03-13T13:44:18.546Z,977.88
2019-03-13T13:45:18.496Z,977.92
2019-03-13T13:46:18.419Z,977.89
2019-03-13T13:47:18.361Z,977.85
2019-03-13T13:48:18.300Z,977.90
2019-03-13T13:49:18.244Z,977.88
2019-03-13T13:50:18.184Z,977.88
2019-03-13T13:51:18.124Z,977.98
2019-03-13T13:52:18.069Z,977.96
2019-03-13T13:53:18.006Z,977.95
2019-03-13T13:54:17.948Z,977.94
2019-03-13T13:55:17.889Z,977.85
2019-03-13T13:56:17.832Z,977.90
2019-03-13T13:57:17.771Z,977.92
2019-03-13T13:58:17.713Z,977.95
2019-03-13T13:59:17.652Z,977.92
2019-03-13T14:00:17.599Z,978.04
2019-03-13T14:01:17.541Z,978.04
2019-03-13T14:02:17.477Z,977.91
2019-03-13T14:03:17.423Z,977.89
2019-03-13T14:04:17.357Z,978.03
2019-03-13T14:05:17.298Z,978.01
2019-03-13T14:06:17.239Z,977.87
2019-03-13T14:07:17.181Z,978.00
2019-03-13T14:08:17.127Z,977.89
2019-03-13T14:09:17.070Z,977.84
2019-03-13T14:10:17.004Z,977.87
2019-03-13T14:11:16.945Z,977.87
2019-03-13T14:12:20.000Z,977.87
2019-03-13T14:13:16.827Z,977.95
2019-03-13T14:14:16.768Z,977.86
2019-03-13T14:15:16.709Z,977.86
2019-03-13T14:16:16.651Z,977.87
2019-03-13T14:17:16.593Z,977.82
2019-03-13T14:18:16.536Z,977.88
2019-03-13T14:19:16.473Z,977.86
2019-03-13T14:20:16.416Z,977.89
2019-03-13T14:21:16.356Z,977.87
2019-03-13T14:22:16.300Z,977.85
2019-03-13T14:23:16.241Z,977.85
2019-03-13T14:24:17.519Z,977.71
2019-03-13T14:25:16.120Z,977.72
2019-03-13T14:26:16.062Z,977.73
2019-03-13T14:27:16.006Z,977.68
2019-03-13T14:28:15.949Z,977.66
2019-03-13T14:29:15.885Z,977.76
2019-03-13T14:30:15.827Z,977.83
2019-03-13T14:31:15.768Z,977.83
2019-03-13T14:32:15.710Z,977.79
2019-03-13T14:33:15.650Z,977.69
2019-03-13T14:34:15.591Z,977.80
2019-03-13T14:35:15.531Z,977.77
2019-03-13T14:36:15.473Z,977.75
2019-03-13T14:37:15.413Z,977.76
2019-03-13T14:38:15.357Z,977.70
2019-03-13T14:39:15.300Z,977.73
2019-03-13T14:40:15.241Z,977.75
2019-03-13T14:41:15.178Z,977.80